sensor_id;sensor_type;location;lat;lon;timestamp;P1;durP1;ratioP1;P2;durP2;ratioP2
5955;SDS011;3004;48.080;11.600;2023-04-23T00:01:40;67.50;;;2.17;;
5955;SDS011;3004;48.080;11.600;2023-04-23T00:04:08;67.20;;;1.50;;
5955;SDS011;3004;48.080;11.600;2023-04-23T00:06:35;67.23;;;1.80;;
5955;SDS011;3004;48.080;11.600;2023-04-23T04:48:05;69.80;;;3.43;;
5955;SDS011;3004;48.080;11.600;2023-04-23T04:50:44;70.70;;;3.60;;
5955;SDS011;3004;48.080;11.600;2023-04-23T04:53:33;73.90;;;4.77;;
5955;SDS011;3004;48.080;11.600;2023-04-23T04:59:14;72.67;;;4.40;;
5955;SDS011;3004;48.080;11.600;2023-04-23T05:02:03;72.30;;;4.40;;
5955;SDS011;3004;48.080;11.600;2023-04-23T05:21:27;72.37;;;4.60;;
5955;SDS011;3004;48.080;11.600;2023-04-23T05:32:06;72.60;;;4.70;;
5955;SDS011;3004;48.080;11.600;2023-04-23T05:34:56;72.20;;;4.70;;
5955;SDS011;3004;48.080;11.600;2023-04-23T05:57:52;72.50;;;4.50;;
5955;SDS011;3004;48.080;11.600;2023-04-23T06:52:56;74.00;;;5.37;;
5955;SDS011;3004;48.080;11.600;2023-04-23T06:55:26;74.00;;;5.57;;
5955;SDS011;3004;48.080;11.600;2023-04-23T06:58:07;74.50;;;5.80;;
5955;SDS011;3004;48.080;11.600;2023-04-23T07:00:48;74.50;;;5.73;;
5955;SDS011;3004;48.080;11.600;2023-04-23T07:03:17;74.60;;;5.80;;
5955;SDS011;3004;48.080;11.600;2023-04-23T07:05:46;74.40;;;5.90;;
5955;SDS011;3004;48.080;11.600;2023-04-23T07:08:17;74.97;;;6.30;;
5955;SDS011;3004;48.080;11.600;2023-04-23T07:10:48;74.60;;;5.97;;
5955;SDS011;3004;48.080;11.600;2023-04-23T07:13:19;74.60;;;5.93;;
5955;SDS011;3004;48.080;11.600;2023-04-23T07:16:01;74.50;;;5.97;;
5955;SDS011;3004;48.080;11.600;2023-04-23T07:18:28;74.93;;;5.90;;
5955;SDS011;3004;48.080;11.600;2023-04-23T07:20:56;74.10;;;6.00;;
5955;SDS011;3004;48.080;11.600;2023-04-23T07:23:24;74.70;;;6.07;;
5955;SDS011;3004;48.080;11.600;2023-04-23T07:25:54;74.50;;;6.17;;
5955;SDS011;3004;48.080;11.600;2023-04-23T07:28:22;75.27;;;6.57;;
5955;SDS011;3004;48.080;11.600;2023-04-23T07:30:49;75.07;;;6.47;;
5955;SDS011;3004;48.080;11.600;2023-04-23T07:33:17;74.97;;;6.33;;
5955;SDS011;3004;48.080;11.600;2023-04-23T07:35:45;77.73;;;7.37;;
5955;SDS011;3004;48.080;11.600;2023-04-23T07:38:14;75.10;;;6.57;;
5955;SDS011;3004;48.080;11.600;2023-04-23T07:40:46;75.73;;;7.37;;
5955;SDS011;3004;48.080;11.600;2023-04-23T07:43:18;74.80;;;6.73;;
5955;SDS011;3004;48.080;11.600;2023-04-23T07:45:47;74.67;;;6.57;;
5955;SDS011;3004;48.080;11.600;2023-04-23T07:48:14;75.07;;;6.70;;
5955;SDS011;3004;48.080;11.600;2023-04-23T07:50:44;74.60;;;6.60;;
5955;SDS011;3004;48.080;11.600;2023-04-23T07:53:12;75.47;;;7.00;;
5955;SDS011;3004;48.080;11.600;2023-04-23T07:55:39;75.00;;;6.73;;
5955;SDS011;3004;48.080;11.600;2023-04-23T07:58:15;74.90;;;6.73;;
5955;SDS011;3004;48.080;11.600;2023-04-23T08:00:59;74.70;;;6.70;;
5955;SDS011;3004;48.080;11.600;2023-04-23T08:06:46;74.87;;;6.70;;
5955;SDS011;3004;48.080;11.600;2023-04-23T08:09:17;74.60;;;6.77;;
5955;SDS011;3004;48.080;11.600;2023-04-23T08:11:48;74.60;;;6.73;;
5955;SDS011;3004;48.080;11.600;2023-04-23T08:14:29;74.60;;;6.73;;
5955;SDS011;3004;48.080;11.600;2023-04-23T08:16:57;74.87;;;6.73;;
5955;SDS011;3004;48.080;11.600;2023-04-23T08:19:24;75.57;;;7.30;;
5955;SDS011;3004;48.080;11.600;2023-04-23T08:21:55;74.70;;;6.77;;
5955;SDS011;3004;48.080;11.600;2023-04-23T08:24:23;74.30;;;6.83;;
5955;SDS011;3004;48.080;11.600;2023-04-23T08:26:50;74.50;;;6.87;;
5955;SDS011;3004;48.080;11.600;2023-04-23T08:29:19;74.50;;;6.73;;
5955;SDS011;3004;48.080;11.600;2023-04-23T08:31:49;74.40;;;6.73;;
5955;SDS011;3004;48.080;11.600;2023-04-23T08:34:20;74.77;;;6.73;;
5955;SDS011;3004;48.080;11.600;2023-04-23T08:36:47;74.30;;;7.00;;
5955;SDS011;3004;48.080;11.600;2023-04-23T08:39:15;74.10;;;7.03;;
5955;SDS011;3004;48.080;11.600;2023-04-23T08:41:42;74.17;;;7.03;;
5955;SDS011;3004;48.080;11.600;2023-04-23T08:44:12;74.37;;;6.93;;
5955;SDS011;3004;48.080;11.600;2023-04-23T08:46:45;74.57;;;6.80;;
5955;SDS011;3004;48.080;11.600;2023-04-23T08:49:31;75.07;;;6.80;;
5955;SDS011;3004;48.080;11.600;2023-04-23T08:52:03;74.70;;;6.70;;
5955;SDS011;3004;48.080;11.600;2023-04-23T08:54:36;74.60;;;6.50;;
5955;SDS011;3004;48.080;11.600;2023-04-23T08:57:09;74.73;;;6.73;;
5955;SDS011;3004;48.080;11.600;2023-04-23T08:59:37;74.57;;;6.80;;
5955;SDS011;3004;48.080;11.600;2023-04-23T09:02:08;74.57;;;6.27;;
5955;SDS011;3004;48.080;11.600;2023-04-23T11:16:46;68.57;;;3.20;;
5955;SDS011;3004;48.080;11.600;2023-04-23T12:16:39;67.77;;;2.30;;
5955;SDS011;3004;48.080;11.600;2023-04-23T12:21:49;67.63;;;2.30;;
5955;SDS011;3004;48.080;11.600;2023-04-23T12:24:24;67.37;;;2.10;;
5955;SDS011;3004;48.080;11.600;2023-04-23T12:42:32;70.83;;;1.90;;
5955;SDS011;3004;48.080;11.600;2023-04-23T12:45:11;67.90;;;2.00;;
5955;SDS011;3004;48.080;11.600;2023-04-23T12:50:16;67.63;;;1.80;;
5955;SDS011;3004;48.080;11.600;2023-04-23T12:52:56;67.70;;;1.50;;
5955;SDS011;3004;48.080;11.600;2023-04-23T12:55:27;68.50;;;1.70;;
5955;SDS011;3004;48.080;11.600;2023-04-23T13:06:08;69.57;;;2.17;;
5955;SDS011;3004;48.080;11.600;2023-04-23T13:24:12;69.83;;;2.67;;
5955;SDS011;3004;48.080;11.600;2023-04-23T13:44:52;68.17;;;1.60;;
5955;SDS011;3004;48.080;11.600;2023-04-23T14:13:45;71.43;;;1.63;;
5955;SDS011;3004;48.080;11.600;2023-04-23T14:29:44;68.37;;;1.90;;
5955;SDS011;3004;48.080;11.600;2023-04-23T14:32:11;67.87;;;1.60;;
5955;SDS011;3004;48.080;11.600;2023-04-23T15:21:26;69.80;;;3.20;;
5955;SDS011;3004;48.080;11.600;2023-04-23T15:23:53;72.77;;;4.23;;
5955;SDS011;3004;48.080;11.600;2023-04-23T19:05:07;67.77;;;2.70;;
5955;SDS011;3004;48.080;11.600;2023-04-23T19:07:51;67.07;;;2.50;;
